MDT,Max TemperatureF,Mean TemperatureF,Min TemperatureF,Max Dew PointF,MeanDew PointF,Min DewpointF,Max Humidity, Mean Humidity, Min Humidity, Max Sea Level PressureIn, Mean Sea Level PressureIn, Min Sea Level PressureIn, Max VisibilityMiles, Mean VisibilityMiles, Min VisibilityMiles, Max Wind SpeedMPH, Mean Wind SpeedMPH, Max Gust SpeedMPH,PrecipitationIn, CloudCover, Events, WindDirDegrees
2010-10-1,68,59,50,45,40,37,63,48,35,30.35,30.30,30.23,10,10,9,13,8,18,0.00,0,,353
2010-10-2,80,61,42,41,36,28,76,47,16,30.29,30.21,30.10,10,10,8,9,4,,0.00,0,,107
2010-10-3,84,70,57,41,30,27,33,24,12,30.11,30.07,29.97,10,10,10,13,8,17,0.00,0,,213
2010-10-4,80,66,53,39,33,25,39,28,17,29.97,29.92,29.86,10,10,8,15,5,26,0.00,1,,224
2010-10-5,68,60,51,46,40,36,59,47,39,30.32,30.14,29.98,10,10,10,18,6,25,0.00,3,,339
2010-10-6,71,58,44,46,45,43,100,68,38,30.41,30.32,30.15,10,8,0,15,5,20,0.00,3,,118
2010-10-7,73,63,53,45,36,30,67,40,20,30.15,30.08,29.96,10,10,10,18,9,23,0.00,1,,221
2010-10-8,59,54,48,43,37,32,82,54,41,30.15,30.04,29.98,10,10,10,18,8,26,0.00,6,,305
2010-10-9,51,48,44,46,44,43,93,86,71,30.25,30.21,30.16,10,10,8,8,1,,0.01,8,,23
2010-10-10,66,54,41,41,37,34,76,53,32,30.27,30.20,30.08,10,10,10,14,3,20,0.00,0,,40
2010-10-11,62,52,42,46,42,37,93,72,42,30.18,30.09,30.06,10,10,10,22,3,25,0.01,6,,359
2010-10-12,55,42,28,37,30,21,93,63,26,30.42,30.37,30.32,10,10,10,14,3,,0.00,1,,17
2010-10-13,66,48,30,28,24,18,75,41,18,30.44,30.38,30.31,10,10,10,14,6,22,0.00,0,,196
2010-10-14,75,56,37,34,26,23,65,34,15,30.32,30.23,30.12,10,10,10,20,5,23,0.00,0,,158
2010-10-15,71,62,53,28,22,18,26,19,16,30.11,30.07,30.01,10,10,10,20,12,37,0.00,1,,252
2010-10-16,53,42,30,27,22,18,64,44,33,30.25,30.19,30.11,10,10,10,15,7,17,0.00,2,,3
2010-10-17,55,46,37,43,38,27,93,72,49,30.14,30.10,30.07,10,10,10,22,8,25,0.02,7,,22
2010-10-18,59,44,30,41,37,30,100,76,42,30.19,30.14,30.03,10,10,1,8,3,,0.00,1,,67
2010-10-19,62,48,33,36,29,25,93,56,25,30.16,30.11,30.06,10,10,10,10,3,,0.00,0,,142
2010-10-20,69,52,35,28,26,23,70,43,18,30.14,30.10,30.05,10,10,10,13,3,16,0.00,0,,151
2010-10-21,69,54,39,28,26,23,56,36,18,30.05,29.96,29.87,10,10,5,10,5,,0.00,0,,242
2010-10-22,64,52,41,28,26,21,53,37,24,29.88,29.84,29.78,10,10,2,17,6,21,0.00,0,,282
2010-10-23,60,50,41,32,28,25,57,42,31,29.83,29.80,29.77,10,10,10,14,4,20,0.00,3,,48
2010-10-24,60,53,46,34,30,25,58,43,33,29.81,29.64,29.35,10,10,10,18,10,29,0.00,3,,234
2010-10-25,44,42,39,39,25,16,93,56,34,29.58,29.44,29.28,10,10,10,23,9,30,0.01,3,,265
2010-10-26,42,38,35,25,20,14,60,46,33,29.68,29.60,29.56,10,10,10,24,10,32,0.00,3,,268
2010-10-27,44,40,35,18,14,10,41,37,31,30.29,30.07,29.78,10,10,10,22,10,32,0.00,4,,266
2010-10-28,37,37,35,16,15,12,41,40,38,30.33,30.33,30.32,10,10,10,15,13,26,0.00,0,,240
2010-10-29,62,53,44,28,25,19,53,31,22,30.04,29.98,29.95,10,10,10,16,9,29,0.00,0,,257
2010-10-30,55,42,28,30,26,19,80,54,33,30.03,29.97,29.84,10,10,10,10,5,,0.00,1,,130
2010-10-31,53,46,39,36,32,27,81,54,38,30.15,29.99,29.89,10,10,10,22,9,31,0.00,4,,251